Time;durP1;ratioP1;P1;durP2;ratioP2;P2;SDS_P1;SDS_P2;PMS_P1;PMS_P2;Temp;Humidity;BMP_temperature;BMP_pressure;BME280_temperature;BME280_humidity;BME280_pressure;Samples;Min_cycle;Max_cycle;Signal;HPM_P1;HPM_P2
2023/03/22 00:00:28;;;;;;;32.87;21.93;;;9.40;1.00;;;;;;5035935;28;20474;-74
2023/03/22 00:02:56;;;;;;;28.07;20.17;;;9.50;1.00;;;;;;5048166;28;20521;-74
2023/03/22 00:05:22;;;;;;;35.17;22.37;;;9.40;1.00;;;;;;5044070;28;20456;-74
2023/03/22 00:07:52;;;;;;;30.20;19.70;;;9.40;1.00;;;;;;5035968;28;20578;-74
2023/03/22 00:10:19;;;;;;;27.33;18.37;;;9.40;1.00;;;;;;5044972;28;20174;-75
2023/03/22 00:12:45;;;;;;;26.83;20.37;;;9.40;1.00;;;;;;5056048;28;20404;-75
2023/03/22 00:15:11;;;;;;;29.33;20.47;;;9.50;1.00;;;;;;5043643;28;20438;-76
2023/03/22 00:17:37;;;;;;;29.53;20.97;;;9.40;1.00;;;;;;5035913;28;20455;-74
2023/03/22 00:20:05;;;;;;;29.10;19.43;;;9.50;1.00;;;;;;5046455;28;20279;-75
2023/03/22 00:22:31;;;;;;;32.30;21.77;;;9.40;1.00;;;;;;5055195;28;20226;-76
2023/03/22 00:24:58;;;;;;;30.30;19.97;;;9.40;1.00;;;;;;5046461;28;20790;-76
2023/03/22 00:27:23;;;;;;;28.23;21.40;;;9.40;1.00;;;;;;5037291;28;20432;-74
2023/03/22 00:29:52;;;;;;;30.07;20.07;;;9.40;1.00;;;;;;5038558;28;20773;-75
2023/03/22 00:32:18;;;;;;;26.47;18.43;;;9.30;1.00;;;;;;5055153;28;20201;-74
2023/03/22 00:34:44;;;;;;;29.80;20.43;;;9.30;1.00;;;;;;5052281;28;20478;-75
2023/03/22 00:37:10;;;;;;;26.77;19.77;;;9.20;1.00;;;;;;5055966;28;20171;-74
2023/03/22 00:39:35;;;;;;;32.07;19.67;;;9.20;1.00;;;;;;5047215;28;20193;-74
2023/03/22 00:42:03;;;;;;;29.23;19.83;;;9.20;1.00;;;;;;5034920;28;20817;-75
2023/03/22 00:44:29;;;;;;;31.83;18.80;;;9.20;1.00;;;;;;5036347;28;20670;-75
2023/03/22 00:46:55;;;;;;;29.20;18.23;;;9.20;1.00;;;;;;5035626;28;20376;-76
2023/03/22 00:49:20;;;;;;;26.70;19.03;;;9.10;1.00;;;;;;5035919;28;20222;-75
2023/03/22 00:51:46;;;;;;;25.43;18.60;;;9.10;1.00;;;;;;5033501;28;20236;-75
2023/03/22 00:54:12;;;;;;;32.20;21.10;;;9.10;1.00;;;;;;5048755;28;20265;-75
2023/03/22 00:56:37;;;;;;;26.03;19.00;;;9.00;1.00;;;;;;5055421;28;20173;-75
2023/03/22 00:59:04;;;;;;;27.47;19.60;;;9.00;1.00;;;;;;5043145;28;20186;-74
2023/03/22 01:01:30;;;;;;;25.60;18.07;;;9.00;1.00;;;;;;5034043;28;20201;-74
2023/03/22 01:03:56;;;;;;;29.27;18.87;;;8.90;1.00;;;;;;5045174;28;20400;-76
2023/03/22 01:06:21;;;;;;;23.30;19.00;;;8.90;1.00;;;;;;5055353;28;20924;-76
2023/03/22 01:08:49;;;;;;;25.80;19.30;;;8.90;1.00;;;;;;5045036;28;20183;-75
2023/03/22 01:11:15;;;;;;;23.13;17.40;;;8.90;1.00;;;;;;5034436;28;20624;-75
2023/03/22 01:13:41;;;;;;;28.93;20.27;;;8.90;1.00;;;;;;5040249;28;20875;-73
2023/03/22 01:16:08;;;;;;;27.20;19.27;;;8.90;1.00;;;;;;5048060;28;20504;-73
2023/03/22 01:18:35;;;;;;;32.47;19.20;;;8.80;1.00;;;;;;5049402;28;20231;-76
2023/03/22 01:21:01;;;;;;;31.37;18.70;;;8.80;1.00;;;;;;5032885;28;20424;-75
2023/03/22 01:23:27;;;;;;;26.13;17.97;;;8.80;1.00;;;;;;5038715;28;20427;-75
2023/03/22 01:25:52;;;;;;;27.50;18.40;;;8.90;1.00;;;;;;5054426;28;20496;-76
2023/03/22 01:28:18;;;;;;;28.47;20.70;;;8.80;1.00;;;;;;5038133;28;20856;-77
2023/03/22 01:30:44;;;;;;;27.10;19.57;;;8.80;1.00;;;;;;5049113;28;20186;-73
2023/03/22 01:33:10;;;;;;;30.27;21.90;;;8.80;1.00;;;;;;5034806;28;20206;-75
2023/03/22 01:35:36;;;;;;;26.10;18.90;;;8.80;1.00;;;;;;5036526;28;20255;-74
2023/03/22 01:38:02;;;;;;;29.43;19.93;;;8.80;1.00;;;;;;5054826;28;20368;-75
2023/03/22 01:40:28;;;;;;;24.83;17.77;;;8.80;1.00;;;;;;5052425;28;20440;-75
2023/03/22 01:42:54;;;;;;;22.70;18.07;;;8.80;1.00;;;;;;5034618;28;20415;-76
2023/03/22 01:45:33;;;;;;;29.27;18.00;;;8.80;1.00;;;;;;5053933;28;20406;-76
2023/03/22 01:48:13;;;;;;;28.37;19.80;;;8.70;1.00;;;;;;5034576;28;20440;-76
2023/03/22 01:50:43;;;;;;;27.20;18.03;;;8.70;1.00;;;;;;5034115;28;20475;-74
2023/03/22 01:53:13;;;;;;;31.70;19.70;;;8.80;1.00;;;;;;5040745;28;20432;-73
2023/03/22 01:55:39;;;;;;;34.00;20.03;;;8.80;1.00;;;;;;5033416;28;20469;-76
2023/03/22 01:58:05;;;;;;;25.60;19.30;;;8.70;1.00;;;;;;5051485;28;20421;-76
2023/03/22 02:00:32;;;;;;;30.83;18.27;;;8.70;1.00;;;;;;5038882;28;20428;-74
2023/03/22 02:02:58;;;;;;;24.03;17.63;;;8.70;1.00;;;;;;5033770;28;20907;-76
2023/03/22 02:05:25;;;;;;;32.17;17.77;;;8.70;1.00;;;;;;5034230;28;20413;-74
2023/03/22 02:07:51;;;;;;;23.10;16.90;;;8.70;1.00;;;;;;5051134;28;20400;-76
2023/03/22 02:10:26;;;;;;;26.70;17.93;;;8.70;1.00;;;;;;5051169;28;20421;-74
2023/03/22 02:13:15;;;;;;;25.03;18.70;;;8.60;1.00;;;;;;5035665;28;20447;-74
2023/03/22 02:16:02;;;;;;;33.50;20.90;;;8.60;1.00;;;;;;5034221;28;20430;-75
2023/03/22 02:19:10;;;;;;;29.80;19.67;;;8.60;1.00;;;;;;5034285;28;20406;-76
2023/03/22 02:22:00;;;;;;;26.90;19.47;;;8.60;1.00;;;;;;5036255;28;20415;-75
2023/03/22 02:24:54;;;;;;;25.67;18.20;;;8.60;1.00;;;;;;5042321;28;20400;-74
2023/03/22 02:27:38;;;;;;;23.07;18.37;;;8.50;1.00;;;;;;5043424;28;20912;-74
2023/03/22 02:30:34;;;;;;;26.97;18.27;;;8.50;1.00;;;;;;5050244;28;20407;-80
2023/03/22 02:33:09;;;;;;;29.23;17.57;;;8.50;1.00;;;;;;5041285;28;20427;-76
2023/03/22 02:35:45;;;;;;;30.77;19.73;;;8.50;1.00;;;;;;5037539;28;20432;-75
2023/03/22 02:38:44;;;;;;;30.20;18.20;;;8.60;1.00;;;;;;5045705;28;20934;-77
2023/03/22 02:41:37;;;;;;;29.13;18.83;;;8.60;1.00;;;;;;5049915;28;20910;-75
2023/03/22 02:44:38;;;;;;;29.50;17.93;;;8.60;1.00;;;;;;5051170;28;20420;-75
2023/03/22 02:47:06;;;;;;;30.90;17.77;;;8.60;1.00;;;;;;5033198;28;20439;-75
2023/03/22 02:49:52;;;;;;;33.67;19.47;;;8.70;1.00;;;;;;5033418;28;20443;-76
2023/03/22 02:52:38;;;;;;;28.70;19.10;;;8.70;1.00;;;;;;5039157;28;20461;-75
2023/03/22 02:55:30;;;;;;;37.00;20.77;;;8.70;1.00;;;;;;5033184;28;20826;-76
2023/03/22 02:58:16;;;;;;;31.87;20.37;;;8.70;1.00;;;;;;5052708;28;20410;-76
2023/03/22 03:00:45;;;;;;;28.27;20.30;;;8.70;1.00;;;;;;5041290;28;20437;-77
2023/03/22 03:03:13;;;;;;;31.20;19.10;;;8.80;1.00;;;;;;5033361;28;20577;-75
2023/03/22 03:05:43;;;;;;;31.83;19.07;;;8.80;1.00;;;;;;5032655;28;20434;-74
2023/03/22 03:08:11;;;;;;;30.47;18.93;;;8.80;1.00;;;;;;5032410;28;20868;-73
2023/03/22 03:10:39;;;;;;;27.17;19.03;;;8.80;1.00;;;;;;5032365;28;20381;-77
2023/03/22 03:13:08;;;;;;;30.03;19.00;;;8.90;1.00;;;;;;5051662;28;20999;-76
2023/03/22 03:15:35;;;;;;;33.33;19.30;;;8.90;1.00;;;;;;5051689;28;20449;-74
2023/03/22 03:18:43;;;;;;;29.37;18.67;;;8.90;1.00;;;;;;5034486;28;20430;-76
2023/03/22 03:21:41;;;;;;;33.87;18.03;;;8.90;1.00;;;;;;5032781;28;20464;-74
2023/03/22 03:24:06;;;;;;;28.10;18.60;;;9.00;1.00;;;;;;5049934;28;20404;-76
2023/03/22 03:26:44;;;;;;;27.23;19.30;;;9.00;1.00;;;;;;5046875;28;20428;-75
2023/03/22 03:29:13;;;;;;;31.60;18.37;;;9.00;1.00;;;;;;5040080;28;20177;-76
2023/03/22 03:31:47;;;;;;;29.37;18.00;;;9.00;1.00;;;;;;5045909;28;20521;-75
2023/03/22 03:34:23;;;;;;;26.90;19.40;;;9.00;1.00;;;;;;5043088;28;20963;-74
2023/03/22 03:37:01;;;;;;;30.70;18.20;;;9.10;1.00;;;;;;5046373;28;20747;-76
2023/03/22 03:39:32;;;;;;;23.60;18.70;;;9.10;1.00;;;;;;5032893;28;20395;-75
2023/03/22 03:41:59;;;;;;;25.47;18.40;;;9.10;1.00;;;;;;5038271;28;20406;-75
2023/03/22 03:44:26;;;;;;;26.57;18.77;;;9.10;1.00;;;;;;5052984;28;20413;-75
2023/03/22 03:46:53;;;;;;;27.63;19.17;;;9.10;1.00;;;;;;5047044;28;20452;-80
2023/03/22 03:49:21;;;;;;;24.57;17.63;;;9.10;1.00;;;;;;5051734;28;20442;-74
2023/03/22 03:51:58;;;;;;;25.27;18.57;;;9.10;1.00;;;;;;5037943;28;20509;-76
2023/03/22 03:54:24;;;;;;;34.30;18.20;;;9.20;1.00;;;;;;5032196;28;20434;-74
2023/03/22 03:56:50;;;;;;;28.43;19.40;;;9.10;1.00;;;;;;5032860;28;20425;-76
2023/03/22 03:59:17;;;;;;;25.23;16.80;;;9.10;1.00;;;;;;5032769;28;20402;-75
2023/03/22 04:01:51;;;;;;;24.93;16.43;;;9.10;1.00;;;;;;5035267;28;20230;-75
2023/03/22 04:04:25;;;;;;;26.83;18.97;;;9.10;1.00;;;;;;5032703;28;20485;-74
2023/03/22 04:06:58;;;;;;;28.80;18.50;;;9.10;1.00;;;;;;5032095;28;20555;-74
2023/03/22 04:09:29;;;;;;;23.67;17.97;;;9.10;1.00;;;;;;5052245;28;20737;-75
2023/03/22 04:11:56;;;;;;;24.90;18.23;;;9.10;1.00;;;;;;5040818;28;20431;-76
2023/03/22 04:14:23;;;;;;;32.23;19.13;;;9.10;1.00;;;;;;5032570;28;20436;-76
2023/03/22 04:16:49;;;;;;;33.17;19.30;;;9.20;1.00;;;;;;5031963;28;20439;-73
2023/03/22 04:19:15;;;;;;;25.67;17.70;;;9.20;1.00;;;;;;5033318;28;20891;-75
2023/03/22 04:21:41;;;;;;;29.93;20.00;;;9.20;1.00;;;;;;5048231;28;20933;-75
2023/03/22 04:24:07;;;;;;;29.20;19.63;;;9.20;1.00;;;;;;5035491;28;20440;-74
2023/03/22 04:26:33;;;;;;;26.50;20.10;;;9.20;1.00;;;;;;5036874;28;20424;-76
2023/03/22 04:29:01;;;;;;;28.30;20.43;;;9.20;1.00;;;;;;5036169;28;20550;-75
2023/03/22 04:31:28;;;;;;;39.53;20.33;;;9.20;1.00;;;;;;5038131;28;20822;-76
2023/03/22 04:33:56;;;;;;;28.97;19.30;;;9.20;1.00;;;;;;5055041;28;20472;-76
2023/03/22 04:36:23;;;;;;;26.80;17.93;;;9.20;1.00;;;;;;5052615;28;20421;-74
2023/03/22 04:38:49;;;;;;;27.57;18.90;;;9.20;1.00;;;;;;5043049;28;20487;-74
2023/03/22 04:41:16;;;;;;;35.00;19.60;;;9.20;1.00;;;;;;5054055;28;20400;-76
2023/03/22 04:43:45;;;;;;;23.77;19.00;;;9.20;1.00;;;;;;5036104;28;20388;-74
2023/03/22 04:46:12;;;;;;;27.37;19.73;;;9.20;1.00;;;;;;5050135;28;20441;-75
2023/03/22 04:48:40;;;;;;;25.63;18.13;;;9.20;1.00;;;;;;5035807;28;20858;-76
2023/03/22 04:51:08;;;;;;;24.73;18.17;;;9.20;1.00;;;;;;5036241;28;20432;-75
2023/03/22 04:53:37;;;;;;;26.10;18.60;;;9.20;1.00;;;;;;5055563;28;20500;-75
2023/03/22 04:56:10;;;;;;;27.80;20.50;;;9.20;1.00;;;;;;5038200;28;20448;-76
2023/03/22 04:58:41;;;;;;;25.83;19.47;;;9.20;1.00;;;;;;5052148;28;20513;-75
2023/03/22 05:01:12;;;;;;;28.27;20.83;;;9.20;1.00;;;;;;5033882;28;20429;-74
2023/03/22 05:03:38;;;;;;;28.57;19.73;;;9.30;1.00;;;;;;5035553;28;20400;-76
2023/03/22 05:06:07;;;;;;;25.37;20.20;;;9.30;1.00;;;;;;5035631;28;20481;-74
2023/03/22 05:08:33;;;;;;;24.30;18.90;;;9.30;1.00;;;;;;5035383;28;20470;-76
2023/03/22 05:11:06;;;;;;;31.13;22.47;;;9.30;1.00;;;;;;5037677;28;20403;-76
2023/03/22 05:13:32;;;;;;;26.70;18.90;;;9.30;1.00;;;;;;5044631;28;20977;-74
2023/03/22 05:15:58;;;;;;;34.43;18.93;;;9.30;1.00;;;;;;5037969;28;20402;-73
2023/03/22 05:18:25;;;;;;;28.97;20.70;;;9.30;1.00;;;;;;5054681;28;20165;-76
2023/03/22 05:20:53;;;;;;;25.47;20.37;;;9.30;1.00;;;;;;5048491;28;20817;-76
2023/03/22 05:23:20;;;;;;;30.83;20.23;;;9.30;1.00;;;;;;5035076;28;20764;-73
2023/03/22 05:25:50;;;;;;;27.20;19.87;;;9.30;1.00;;;;;;5037339;28;20410;-74
2023/03/22 05:28:18;;;;;;;29.00;20.27;;;9.30;1.00;;;;;;5054686;28;20430;-76
2023/03/22 05:30:45;;;;;;;27.90;18.97;;;9.30;1.00;;;;;;5050485;28;20829;-76
2023/03/22 05:33:11;;;;;;;23.70;17.77;;;9.30;1.00;;;;;;5054859;28;20416;-76
2023/03/22 05:35:39;;;;;;;29.20;18.30;;;9.30;99.90;;;;;;5052673;28;20602;-76
2023/03/22 05:38:05;;;;;;;27.63;19.20;;;9.30;99.90;;;;;;5037478;28;20497;-75
2023/03/22 05:40:31;;;;;;;32.03;20.10;;;9.30;99.90;;;;;;5033913;28;20389;-78
2023/03/22 05:42:57;;;;;;;31.53;19.17;;;9.30;99.90;;;;;;5034619;28;20441;-74
2023/03/22 05:45:24;;;;;;;23.23;17.80;;;9.40;99.90;;;;;;5034625;28;20496;-73
2023/03/22 05:47:50;;;;;;;28.83;14.20;;;9.40;99.90;;;;;;5052906;28;20255;-74
2023/03/22 05:50:20;;;;;;;20.67;17.70;;;9.40;99.90;;;;;;5053348;28;20877;-76
2023/03/22 05:52:47;;;;;;;23.20;18.77;;;9.40;99.90;;;;;;5044327;28;20416;-76
2023/03/22 05:55:13;;;;;;;23.83;18.20;;;9.40;99.90;;;;;;5043486;28;20472;-75
2023/03/22 05:57:40;;;;;;;26.07;18.60;;;9.40;99.90;;;;;;5049759;28;20400;-74
2023/03/22 06:00:12;;;;;;;28.70;17.87;;;9.40;99.90;;;;;;5052349;28;20372;-80
2023/03/22 06:02:47;;;;;;;27.30;19.27;;;9.40;99.90;;;;;;5034486;28;20419;-75
2023/03/22 06:05:15;;;;;;;24.63;18.60;;;9.40;99.90;;;;;;5034387;28;20383;-75
2023/03/22 06:07:42;;;;;;;24.23;17.63;;;9.50;99.90;;;;;;5046084;28;20442;-79
2023/03/22 06:10:11;;;;;;;27.27;18.50;;;9.50;99.90;;;;;;5033210;28;20425;-75
2023/03/22 06:12:37;;;;;;;35.87;19.67;;;9.50;99.90;;;;;;5046681;28;20801;-75
2023/03/22 06:15:03;;;;;;;28.57;17.53;;;9.50;99.90;;;;;;5038518;28;20454;-75
2023/03/22 06:17:29;;;;;;;22.80;15.73;;;9.50;99.90;;;;;;5045093;28;20685;-74
2023/03/22 06:19:55;;;;;;;26.20;16.63;;;9.50;99.90;;;;;;5053737;28;20452;-75
2023/03/22 06:22:21;;;;;;;28.13;18.00;;;9.50;99.90;;;;;;5045699;28;20486;-74
2023/03/22 06:24:47;;;;;;;22.33;17.33;;;9.50;99.90;;;;;;5053866;28;20193;-75
2023/03/22 06:27:13;;;;;;;22.93;16.13;;;9.60;99.90;;;;;;5041762;28;20913;-76
2023/03/22 06:29:39;;;;;;;21.60;16.53;;;9.60;99.90;;;;;;5033338;28;20463;-75
2023/03/22 06:32:05;;;;;;;18.13;12.30;;;9.60;99.90;;;;;;5038643;28;20551;-74
2023/03/22 06:34:31;;;;;;;25.23;16.50;;;9.70;99.90;;;;;;5038182;28;20517;-75
2023/03/22 06:36:57;;;;;;;19.10;14.37;;;9.70;99.90;;;;;;5036226;28;20399;-75
2023/03/22 06:39:23;;;;;;;23.87;13.83;;;9.70;99.90;;;;;;5033860;28;20939;-73
2023/03/22 06:41:50;;;;;;;26.07;14.30;;;9.70;99.90;;;;;;5032606;28;20400;-74
2023/03/22 06:44:16;;;;;;;17.47;13.17;;;9.70;99.90;;;;;;5039125;28;20417;-74
2023/03/22 06:46:41;;;;;;;18.83;13.47;;;9.80;99.90;;;;;;5052866;28;20430;-72
2023/03/22 06:49:07;;;;;;;23.70;13.13;;;9.80;99.90;;;;;;5048757;28;20428;-76
2023/03/22 06:51:34;;;;;;;19.00;14.57;;;9.90;99.90;;;;;;5031387;28;20215;-73
2023/03/22 06:53:59;;;;;;;19.20;13.40;;;9.90;99.90;;;;;;5047448;28;20643;-75
2023/03/22 06:56:25;;;;;;;16.80;12.80;;;9.90;99.90;;;;;;5053435;28;20413;-75
2023/03/22 06:58:53;;;;;;;17.33;12.63;;;9.90;99.90;;;;;;5053357;28;20159;-75
2023/03/22 07:01:20;;;;;;;14.83;11.90;;;9.90;99.90;;;;;;5046737;28;20959;-75
2023/03/22 07:03:46;;;;;;;11.67;10.47;;;9.90;99.90;;;;;;5033382;28;20414;-75
2023/03/22 07:06:11;;;;;;;16.90;11.70;;;9.90;99.90;;;;;;5044367;28;20446;-73
2023/03/22 07:08:37;;;;;;;22.83;12.93;;;10.00;99.90;;;;;;5053252;28;20184;-75
2023/03/22 07:11:04;;;;;;;12.73;10.47;;;10.00;99.90;;;;;;5052268;28;20683;-73
2023/03/22 07:13:30;;;;;;;13.50;11.23;;;10.00;99.90;;;;;;5052887;28;20167;-75
2023/03/22 07:15:57;;;;;;;14.87;11.00;;;10.00;99.90;;;;;;5035102;28;20433;-75
2023/03/22 07:18:24;;;;;;;18.03;11.37;;;10.00;99.90;;;;;;5032721;28;20232;-75
2023/03/22 07:20:50;;;;;;;12.93;10.27;;;10.00;99.90;;;;;;5032275;28;20444;-75
2023/03/22 07:23:17;;;;;;;11.73;10.27;;;10.10;99.90;;;;;;5032342;28;20423;-74
2023/03/22 07:25:43;;;;;;;16.60;11.47;;;10.10;99.90;;;;;;5033032;28;20421;-76
2023/03/22 07:28:10;;;;;;;16.70;10.60;;;10.10;99.90;;;;;;5032963;28;20376;-75
2023/03/22 07:30:40;;;;;;;15.40;11.70;;;10.00;99.90;;;;;;5046931;28;21030;-74
2023/03/22 07:33:07;;;;;;;13.90;10.73;;;10.10;99.90;;;;;;5050416;28;20531;-76
2023/03/22 07:35:33;;;;;;;12.63;9.17;;;10.10;99.90;;;;;;5052748;28;20460;-73
2023/03/22 07:37:59;;;;;;;17.50;9.67;;;10.10;99.90;;;;;;5052757;28;20374;-73
2023/03/22 07:40:26;;;;;;;13.13;9.80;;;10.20;99.90;;;;;;5051632;28;21064;-72
2023/03/22 07:42:51;;;;;;;14.03;10.10;;;10.20;99.90;;;;;;5052749;28;20428;-73
2023/03/22 07:45:18;;;;;;;14.30;9.70;;;10.30;99.90;;;;;;5049634;28;20403;-74
2023/03/22 07:47:44;;;;;;;14.60;9.53;;;10.30;99.90;;;;;;5052832;28;20170;-74
2023/03/22 07:50:11;;;;;;;11.27;8.50;;;10.40;99.90;;;;;;5051767;28;20399;-73
2023/03/22 07:52:38;;;;;;;14.20;9.27;;;10.40;99.90;;;;;;5051376;28;20408;-75
2023/03/22 07:55:05;;;;;;;10.87;8.00;;;10.40;99.90;;;;;;5055099;28;21028;-73
2023/03/22 07:57:30;;;;;;;13.80;9.70;;;10.40;99.90;;;;;;5049814;28;20466;-74
2023/03/22 07:59:56;;;;;;;14.20;9.23;;;10.40;99.90;;;;;;5054968;28;20871;-76
2023/03/22 08:02:22;;;;;;;14.33;9.60;;;10.50;99.90;;;;;;5055736;28;20222;-73
2023/03/22 08:04:49;;;;;;;14.63;9.20;;;10.50;99.90;;;;;;5056572;28;20178;-73
2023/03/22 08:07:17;;;;;;;14.47;9.13;;;10.60;99.90;;;;;;5056525;28;20394;-74
2023/03/22 08:09:44;;;;;;;10.90;8.60;;;10.60;99.90;;;;;;5043305;28;20453;-74
2023/03/22 08:12:10;;;;;;;15.17;9.13;;;10.60;99.90;;;;;;5046840;28;20445;-73
2023/03/22 08:14:36;;;;;;;14.23;8.57;;;10.60;99.90;;;;;;5039429;28;20506;-74
2023/03/22 08:17:03;;;;;;;11.50;8.20;;;10.60;99.90;;;;;;5056274;28;20162;-73
2023/03/22 08:19:30;;;;;;;10.90;8.17;;;10.70;99.90;;;;;;5054980;28;20417;-70
2023/03/22 08:21:56;;;;;;;14.73;9.63;;;10.70;99.90;;;;;;5055166;28;20486;-74
2023/03/22 08:24:22;;;;;;;9.80;8.40;;;10.80;99.90;;;;;;5044596;28;20930;-74
2023/03/22 08:26:48;;;;;;;11.77;8.40;;;10.80;99.90;;;;;;5053184;28;20494;-71
2023/03/22 08:29:15;;;;;;;12.37;8.00;;;10.80;99.90;;;;;;5046926;28;20418;-73
2023/03/22 08:31:41;;;;;;;12.60;8.07;;;10.90;99.90;;;;;;5035258;28;20393;-75
2023/03/22 08:34:07;;;;;;;11.70;8.10;;;11.00;96.00;;;;;;5042607;28;20445;-75
2023/03/22 08:36:33;;;;;;;33.93;8.67;;;10.90;81.00;;;;;;5055770;28;20863;-73
2023/03/22 08:39:00;;;;;;;10.47;8.40;;;11.00;74.30;;;;;;5052642;28;20945;-71
2023/03/22 08:41:26;;;;;;;10.43;7.63;;;11.00;64.40;;;;;;5045160;28;20668;-76
2023/03/22 08:43:52;;;;;;;8.17;7.07;;;11.10;33.10;;;;;;5037325;28;20434;-74
2023/03/22 08:46:17;;;;;;;13.30;8.60;;;11.20;13.40;;;;;;5035855;28;20384;-73
2023/03/22 08:48:49;;;;;;;9.87;7.80;;;11.30;1.00;;;;;;5035396;28;20682;-71
2023/03/22 08:51:19;;;;;;;10.03;7.43;;;11.40;1.00;;;;;;5034267;28;20198;-72
2023/03/22 08:53:46;;;;;;;13.20;8.53;;;11.50;1.00;;;;;;5036107;28;20793;-73
2023/03/22 08:56:13;;;;;;;19.77;9.80;;;11.60;1.00;;;;;;5035669;28;20462;-73
2023/03/22 08:58:41;;;;;;;11.27;8.87;;;11.60;1.00;;;;;;5038846;28;20888;-73
2023/03/22 09:01:10;;;;;;;15.03;9.30;;;11.50;1.00;;;;;;5045065;28;20419;-71
2023/03/22 09:03:36;;;;;;;13.07;9.70;;;11.50;1.00;;;;;;5035424;28;20398;-70
2023/03/22 09:06:02;;;;;;;15.30;9.90;;;11.60;1.00;;;;;;5033750;28;20484;-77
2023/03/22 09:08:29;;;;;;;10.90;9.50;;;11.50;1.00;;;;;;5041047;28;20532;-74
2023/03/22 09:10:55;;;;;;;16.60;10.50;;;11.60;1.00;;;;;;5050842;28;20235;-72
2023/03/22 09:13:20;;;;;;;9.90;8.97;;;11.70;1.00;;;;;;5035769;28;20388;-71
2023/03/22 09:15:46;;;;;;;15.00;10.87;;;11.80;1.00;;;;;;5055306;28;20452;-74
2023/03/22 09:18:14;;;;;;;15.03;11.83;;;12.00;1.00;;;;;;5055091;28;20660;-72
2023/03/22 09:20:39;;;;;;;18.87;10.83;;;12.20;1.00;;;;;;5036466;28;20909;-74
2023/03/22 09:23:05;;;;;;;23.83;11.80;;;12.40;1.00;;;;;;5035272;28;20512;-69
2023/03/22 09:25:31;;;;;;;18.30;10.87;;;12.60;1.00;;;;;;5035127;28;20172;-70
2023/03/22 09:27:57;;;;;;;15.20;10.60;;;12.60;1.00;;;;;;5034476;28;20389;-74
2023/03/22 09:30:23;;;;;;;16.80;11.27;;;12.60;1.00;;;;;;5033546;28;20377;-73
2023/03/22 09:32:48;;;;;;;15.33;10.93;;;12.50;1.00;;;;;;5037505;28;20209;-70
2023/03/22 09:35:15;;;;;;;14.40;11.70;;;12.40;1.00;;;;;;5049957;28;20210;-73
2023/03/22 09:37:41;;;;;;;15.20;11.40;;;12.30;1.00;;;;;;5042638;28;20290;-71
2023/03/22 09:40:07;;;;;;;13.30;11.63;;;12.40;1.00;;;;;;5034056;28;20400;-76
2023/03/22 09:42:41;;;;;;;13.30;11.27;;;12.40;1.00;;;;;;5034716;28;20266;-72
2023/03/22 09:45:15;;;;;;;13.30;10.80;;;12.40;1.00;;;;;;5034880;28;20396;-71
2023/03/22 09:47:45;;;;;;;14.13;11.50;;;12.40;1.00;;;;;;5033601;28;20472;-74
2023/03/22 09:50:31;;;;;;;20.40;10.80;;;12.50;1.00;;;;;;5032423;28;20849;-73
2023/03/22 09:52:58;;;;;;;13.23;11.37;;;12.50;1.00;;;;;;5052669;28;21170;-72
2023/03/22 09:55:38;;;;;;;16.13;11.13;;;12.50;1.00;;;;;;5054068;28;20416;-71
2023/03/22 09:58:18;;;;;;;18.73;11.40;;;12.50;1.00;;;;;;5053470;28;20400;-72
2023/03/22 10:01:19;;;;;;;12.90;11.03;;;12.60;1.00;;;;;;5047007;28;20495;-71
2023/03/22 10:04:14;;;;;;;14.50;10.80;;;12.70;1.00;;;;;;5053693;28;20396;-73
2023/03/22 10:06:48;;;;;;;14.53;12.47;;;12.80;1.00;;;;;;5054089;28;20368;-72
2023/03/22 10:09:29;;;;;;;15.93;10.53;;;12.90;1.00;;;;;;5050067;28;21540;-71
2023/03/22 10:12:15;;;;;;;14.40;10.47;;;13.00;1.00;;;;;;5033131;28;20548;-72
2023/03/22 10:15:04;;;;;;;16.87;11.23;;;13.10;1.00;;;;;;5038490;28;20471;-70
2023/03/22 10:17:30;;;;;;;17.40;10.97;;;13.10;1.00;;;;;;5045072;28;20426;-72
2023/03/22 10:20:07;;;;;;;12.10;9.73;;;13.10;99.90;;;;;;5053726;28;20874;-72
2023/03/22 10:22:37;;;;;;;8.77;7.97;;;13.10;99.90;;;;;;5053842;28;20424;-71
2023/03/22 10:25:05;;;;;;;17.87;10.90;;;13.10;99.90;;;;;;5053226;28;20498;-72
2023/03/22 10:27:32;;;;;;;12.90;10.03;;;13.10;99.90;;;;;;5053800;28;20406;-71
2023/03/22 10:30:36;;;;;;;12.90;9.50;;;13.20;99.90;;;;;;5041610;28;20447;-70
2023/03/22 10:33:07;;;;;;;15.73;9.30;;;13.30;99.90;;;;;;5033413;28;20457;-74
2023/03/22 10:35:33;;;;;;;13.13;9.60;;;13.30;99.90;;;;;;5033795;28;20428;-75
2023/03/22 10:38:02;;;;;;;12.57;9.27;;;13.40;99.90;;;;;;5033663;28;20894;-74
2023/03/22 10:40:32;;;;;;;17.37;10.43;;;13.30;99.90;;;;;;5048152;28;20537;-73
2023/03/22 10:43:24;;;;;;;10.77;8.63;;;13.30;99.90;;;;;;5046201;28;20449;-72
2023/03/22 10:45:53;;;;;;;17.77;11.50;;;13.30;99.90;;;;;;5053523;28;20405;-74
2023/03/22 10:48:31;;;;;;;11.03;8.90;;;13.20;99.90;;;;;;5053636;28;20397;-74
2023/03/22 10:50:59;;;;;;;15.20;10.90;;;13.10;99.90;;;;;;5052489;28;20922;-71
2023/03/22 10:53:43;;;;;;;11.10;9.60;;;13.10;99.90;;;;;;5053282;28;20495;-72
2023/03/22 10:56:19;;;;;;;16.50;10.20;;;13.00;99.90;;;;;;5041080;28;20420;-71
2023/03/22 10:58:46;;;;;;;10.20;9.20;;;13.10;99.90;;;;;;5049840;28;20828;-71
2023/03/22 11:01:25;;;;;;;8.97;8.00;;;13.20;99.90;;;;;;5052223;28;20459;-70
2023/03/22 11:03:53;;;;;;;12.13;9.17;;;13.10;99.90;;;;;;5035198;28;20952;-70
2023/03/22 11:06:28;;;;;;;11.90;9.13;;;13.20;99.90;;;;;;5033349;28;20403;-72
2023/03/22 11:09:00;;;;;;;13.37;8.60;;;13.40;99.90;;;;;;5033489;28;20784;-73
2023/03/22 11:11:33;;;;;;;9.10;7.67;;;13.40;99.90;;;;;;5031246;28;20537;-72
2023/03/22 11:14:24;;;;;;;11.67;8.83;;;13.40;99.90;;;;;;5032659;28;20909;-72
2023/03/22 11:17:00;;;;;;;21.40;9.20;;;13.50;99.90;;;;;;5032511;28;20423;-71
2023/03/22 11:19:36;;;;;;;9.40;8.27;;;13.50;99.90;;;;;;5033058;28;20816;-73
2023/03/22 11:22:06;;;;;;;10.73;8.77;;;13.50;99.90;;;;;;5032104;28;20437;-70
2023/03/22 11:24:33;;;;;;;12.13;9.17;;;13.50;99.90;;;;;;5033064;28;20402;-72
2023/03/22 11:27:35;;;;;;;15.33;8.77;;;13.40;99.90;;;;;;5032667;28;20453;-71
2023/03/22 11:30:19;;;;;;;16.80;9.60;;;13.40;99.90;;;;;;5029779;28;21011;-73
2023/03/22 11:32:45;;;;;;;15.57;9.60;;;13.50;99.90;;;;;;5032632;28;20467;-73
2023/03/22 11:35:10;;;;;;;10.13;9.23;;;13.60;99.90;;;;;;5032317;28;20981;-71
2023/03/22 11:37:48;;;;;;;20.50;8.13;;;13.80;99.90;;;;;;5032844;28;20951;-73
2023/03/22 11:40:26;;;;;;;10.70;8.97;;;14.00;99.90;;;;;;5038522;28;20189;-73
2023/03/22 11:43:08;;;;;;;11.93;8.10;;;14.20;99.90;;;;;;5051365;28;20539;-70
2023/03/22 11:45:39;;;;;;;9.03;7.97;;;14.30;99.90;;;;;;5041663;28;20460;-71
2023/03/22 11:48:11;;;;;;;10.93;6.40;;;14.40;99.90;;;;;;5032683;28;20448;-73
2023/03/22 11:50:40;;;;;;;10.60;7.80;;;14.40;99.90;;;;;;5031675;28;20434;-72
2023/03/22 11:53:12;;;;;;;9.07;8.20;;;14.20;99.90;;;;;;5031587;28;20437;-72
2023/03/22 11:55:38;;;;;;;12.83;9.03;;;14.10;99.90;;;;;;5039933;28;20473;-72
2023/03/22 11:58:05;;;;;;;9.70;8.10;;;14.10;99.90;;;;;;5052589;28;20409;-73
2023/03/22 12:00:36;;;;;;;7.10;6.40;;;14.20;99.90;;;;;;5051747;28;20174;-72
2023/03/22 12:03:22;;;;;;;11.07;7.43;;;14.10;99.90;;;;;;5052603;28;20420;-72
2023/03/22 12:05:50;;;;;;;10.00;8.03;;;14.00;99.90;;;;;;5052498;28;20422;-73
2023/03/22 12:08:25;;;;;;;10.13;7.43;;;13.90;99.90;;;;;;5050217;28;20537;-74
2023/03/22 12:11:05;;;;;;;10.73;7.80;;;13.80;99.90;;;;;;5036094;28;20784;-70
2023/03/22 12:13:34;;;;;;;16.23;6.40;;;13.80;99.90;;;;;;5046344;28;20475;-70
2023/03/22 12:16:04;;;;;;;9.27;6.50;;;13.80;99.90;;;;;;5051547;28;20917;-72
2023/03/22 12:18:37;;;;;;;10.60;7.20;;;13.80;99.90;;;;;;5052487;28;20400;-70
2023/03/22 12:21:03;;;;;;;9.77;6.53;;;13.80;99.90;;;;;;5051557;28;20463;-71
2023/03/22 12:23:36;;;;;;;7.90;7.13;;;13.80;99.90;;;;;;5036199;28;20875;-70
2023/03/22 12:26:22;;;;;;;9.90;7.00;;;13.90;99.90;;;;;;5035592;28;20457;-71
2023/03/22 12:29:00;;;;;;;7.03;6.33;;;13.80;99.90;;;;;;5052176;28;20376;-70
2023/03/22 12:31:40;;;;;;;7.40;6.90;;;13.80;99.90;;;;;;5051314;28;20964;-75
2023/03/22 12:34:16;;;;;;;9.33;6.93;;;13.70;99.90;;;;;;5032307;28;20461;-70
2023/03/22 12:36:52;;;;;;;8.20;5.10;;;13.80;99.90;;;;;;5031787;28;20434;-72
2023/03/22 12:39:29;;;;;;;8.83;6.27;;;13.60;99.90;;;;;;5032422;28;20409;-71
2023/03/22 12:42:01;;;;;;;14.80;7.30;;;13.50;99.90;;;;;;5034798;28;21091;-74
2023/03/22 12:44:39;;;;;;;10.17;7.77;;;13.40;99.90;;;;;;5035907;28;20880;-70
2023/03/22 12:47:19;;;;;;;8.60;7.70;;;13.30;99.90;;;;;;5035266;28;20410;-74
2023/03/22 12:50:06;;;;;;;6.13;5.70;;;13.00;99.90;;;;;;5034965;28;20400;-75
2023/03/22 12:52:53;;;;;;;11.43;6.90;;;12.90;99.90;;;;;;5037166;28;20919;-72
2023/03/22 12:55:37;;;;;;;11.13;5.70;;;12.80;99.90;;;;;;5038980;28;21028;-71
2023/03/22 12:58:07;;;;;;;5.97;5.47;;;12.80;99.90;;;;;;5056026;28;20445;-72